sensor_id;sensor_type;location;lat;lon;timestamp;P1;durP1;ratioP1;P2;durP2;ratioP2
57057;SDS011;55017;52.848;6.748;2023-04-24T00:02:13;118.68;;;115.03;;
57057;SDS011;55017;52.848;6.748;2023-04-24T00:04:38;119.05;;;115.35;;
57057;SDS011;55017;52.848;6.748;2023-04-24T00:07:09;117.30;;;113.70;;
57057;SDS011;55017;52.848;6.748;2023-04-24T00:09:35;113.10;;;109.55;;
57057;SDS011;55017;52.848;6.748;2023-04-24T00:12:01;117.75;;;114.15;;
57057;SDS011;55017;52.848;6.748;2023-04-24T00:14:29;115.20;;;111.60;;
57057;SDS011;55017;52.848;6.748;2023-04-24T00:16:55;119.10;;;115.40;;
57057;SDS011;55017;52.848;6.748;2023-04-24T00:19:21;117.00;;;113.40;;
57057;SDS011;55017;52.848;6.748;2023-04-24T00:21:47;119.30;;;115.60;;
57057;SDS011;55017;52.848;6.748;2023-04-24T00:24:15;120.00;;;116.30;;
57057;SDS011;55017;52.848;6.748;2023-04-24T00:26:41;119.30;;;115.50;;
57057;SDS011;55017;52.848;6.748;2023-04-24T00:29:07;117.35;;;113.65;;
57057;SDS011;55017;52.848;6.748;2023-04-24T00:31:32;120.75;;;116.95;;
57057;SDS011;55017;52.848;6.748;2023-04-24T00:34:00;116.95;;;113.25;;
57057;SDS011;55017;52.848;6.748;2023-04-24T00:36:26;119.60;;;115.80;;
57057;SDS011;55017;52.848;6.748;2023-04-24T00:38:52;119.90;;;116.10;;
57057;SDS011;55017;52.848;6.748;2023-04-24T00:41:18;118.40;;;114.70;;
57057;SDS011;55017;52.848;6.748;2023-04-24T00:43:44;121.20;;;117.40;;
57057;SDS011;55017;52.848;6.748;2023-04-24T00:46:10;121.40;;;117.60;;
57057;SDS011;55017;52.848;6.748;2023-04-24T00:48:38;119.20;;;115.40;;
57057;SDS011;55017;52.848;6.748;2023-04-24T00:51:05;114.60;;;110.90;;
57057;SDS011;55017;52.848;6.748;2023-04-24T00:53:30;117.65;;;113.95;;
57057;SDS011;55017;52.848;6.748;2023-04-24T00:55:56;117.40;;;113.70;;
57057;SDS011;55017;52.848;6.748;2023-04-24T00:58:22;114.20;;;110.60;;
57057;SDS011;55017;52.848;6.748;2023-04-24T01:00:48;117.55;;;113.75;;
57057;SDS011;55017;52.848;6.748;2023-04-24T01:03:18;116.90;;;113.20;;
57057;SDS011;55017;52.848;6.748;2023-04-24T01:05:49;120.70;;;116.90;;
57057;SDS011;55017;52.848;6.748;2023-04-24T01:08:15;124.20;;;120.20;;
57057;SDS011;55017;52.848;6.748;2023-04-24T01:10:41;119.55;;;115.65;;
57057;SDS011;55017;52.848;6.748;2023-04-24T01:13:07;119.30;;;115.50;;
57057;SDS011;55017;52.848;6.748;2023-04-24T01:15:34;121.10;;;117.30;;
57057;SDS011;55017;52.848;6.748;2023-04-24T01:18:00;117.70;;;114.00;;
57057;SDS011;55017;52.848;6.748;2023-04-24T01:20:25;120.90;;;117.10;;
57057;SDS011;55017;52.848;6.748;2023-04-24T01:22:51;116.80;;;113.20;;
57057;SDS011;55017;52.848;6.748;2023-04-24T01:25:19;119.05;;;115.35;;
57057;SDS011;55017;52.848;6.748;2023-04-24T01:27:45;116.63;;;112.93;;
57057;SDS011;55017;52.848;6.748;2023-04-24T01:30:11;116.70;;;113.00;;
57057;SDS011;55017;52.848;6.748;2023-04-24T01:32:37;115.80;;;112.20;;
57057;SDS011;55017;52.848;6.748;2023-04-24T01:35:03;116.80;;;113.10;;
57057;SDS011;55017;52.848;6.748;2023-04-24T01:37:29;116.33;;;112.67;;
57057;SDS011;55017;52.848;6.748;2023-04-24T01:39:57;116.60;;;112.90;;
57057;SDS011;55017;52.848;6.748;2023-04-24T01:42:22;113.70;;;110.10;;
57057;SDS011;55017;52.848;6.748;2023-04-24T01:44:48;116.50;;;112.80;;
57057;SDS011;55017;52.848;6.748;2023-04-24T01:47:14;116.70;;;113.03;;
57057;SDS011;55017;52.848;6.748;2023-04-24T01:49:40;117.00;;;113.30;;
57057;SDS011;55017;52.848;6.748;2023-04-24T01:52:06;120.10;;;116.30;;
57057;SDS011;55017;52.848;6.748;2023-04-24T01:54:32;115.00;;;111.30;;
57057;SDS011;55017;52.848;6.748;2023-04-24T01:56:58;122.47;;;118.57;;
57057;SDS011;55017;52.848;6.748;2023-04-24T01:59:25;122.30;;;118.40;;
57057;SDS011;55017;52.848;6.748;2023-04-24T02:01:53;118.90;;;115.05;;
57057;SDS011;55017;52.848;6.748;2023-04-24T02:04:18;122.60;;;118.70;;
57057;SDS011;55017;52.848;6.748;2023-04-24T02:06:44;122.70;;;118.80;;
57057;SDS011;55017;52.848;6.748;2023-04-24T02:09:10;119.50;;;115.70;;
57057;SDS011;55017;52.848;6.748;2023-04-24T02:11:36;119.10;;;115.20;;
57057;SDS011;55017;52.848;6.748;2023-04-24T02:14:01;120.00;;;116.20;;
57057;SDS011;55017;52.848;6.748;2023-04-24T02:16:28;120.25;;;116.35;;
57057;SDS011;55017;52.848;6.748;2023-04-24T02:18:57;119.55;;;115.65;;
57057;SDS011;55017;52.848;6.748;2023-04-24T02:21:22;119.90;;;116.05;;
57057;SDS011;55017;52.848;6.748;2023-04-24T02:23:48;118.60;;;114.80;;
57057;SDS011;55017;52.848;6.748;2023-04-24T02:26:14;123.27;;;119.17;;
57057;SDS011;55017;52.848;6.748;2023-04-24T02:28:40;123.70;;;119.80;;
57057;SDS011;55017;52.848;6.748;2023-04-24T02:31:05;123.80;;;119.75;;
57057;SDS011;55017;52.848;6.748;2023-04-24T02:33:31;120.80;;;116.60;;
57057;SDS011;55017;52.848;6.748;2023-04-24T02:35:57;122.90;;;118.90;;
57057;SDS011;55017;52.848;6.748;2023-04-24T02:38:22;120.20;;;116.30;;
57057;SDS011;55017;52.848;6.748;2023-04-24T02:40:48;121.80;;;117.90;;
57057;SDS011;55017;52.848;6.748;2023-04-24T02:43:13;122.20;;;118.25;;
57057;SDS011;55017;52.848;6.748;2023-04-24T02:45:39;123.60;;;119.60;;
57057;SDS011;55017;52.848;6.748;2023-04-24T02:48:05;123.53;;;119.53;;
57057;SDS011;55017;52.848;6.748;2023-04-24T02:50:30;122.45;;;118.45;;
57057;SDS011;55017;52.848;6.748;2023-04-24T02:52:56;124.50;;;120.43;;
57057;SDS011;55017;52.848;6.748;2023-04-24T02:55:22;121.90;;;117.80;;
57057;SDS011;55017;52.848;6.748;2023-04-24T03:00:13;121.70;;;117.63;;
57057;SDS011;55017;52.848;6.748;2023-04-24T03:02:39;122.50;;;118.25;;
57057;SDS011;55017;52.848;6.748;2023-04-24T03:05:04;124.45;;;120.25;;
57057;SDS011;55017;52.848;6.748;2023-04-24T03:07:30;122.20;;;118.10;;
57057;SDS011;55017;52.848;6.748;2023-04-24T03:09:57;119.90;;;115.85;;
57057;SDS011;55017;52.848;6.748;2023-04-24T03:12:23;124.35;;;120.20;;
57057;SDS011;55017;52.848;6.748;2023-04-24T03:14:49;121.85;;;117.65;;
57057;SDS011;55017;52.848;6.748;2023-04-24T03:17:14;120.10;;;115.90;;
57057;SDS011;55017;52.848;6.748;2023-04-24T03:19:40;123.22;;;119.18;;
57057;SDS011;55017;52.848;6.748;2023-04-24T03:22:05;121.90;;;117.80;;
57057;SDS011;55017;52.848;6.748;2023-04-24T03:24:31;121.00;;;116.95;;
57057;SDS011;55017;52.848;6.748;2023-04-24T03:26:57;120.20;;;116.10;;
57057;SDS011;55017;52.848;6.748;2023-04-24T03:29:22;121.90;;;117.90;;
57057;SDS011;55017;52.848;6.748;2023-04-24T03:31:48;119.63;;;115.63;;
57057;SDS011;55017;52.848;6.748;2023-04-24T03:34:14;121.78;;;117.68;;
57057;SDS011;55017;52.848;6.748;2023-04-24T03:36:39;123.75;;;119.65;;
57057;SDS011;55017;52.848;6.748;2023-04-24T03:39:05;119.80;;;115.80;;
57057;SDS011;55017;52.848;6.748;2023-04-24T03:41:30;123.82;;;119.68;;
57057;SDS011;55017;52.848;6.748;2023-04-24T03:43:56;123.70;;;119.50;;
57057;SDS011;55017;52.848;6.748;2023-04-24T03:46:21;124.80;;;120.60;;
57057;SDS011;55017;52.848;6.748;2023-04-24T03:48:47;119.70;;;115.60;;
57057;SDS011;55017;52.848;6.748;2023-04-24T03:51:12;119.90;;;115.90;;
57057;SDS011;55017;52.848;6.748;2023-04-24T03:53:38;123.80;;;119.70;;
57057;SDS011;55017;52.848;6.748;2023-04-24T03:56:04;123.38;;;119.22;;
57057;SDS011;55017;52.848;6.748;2023-04-24T03:58:30;119.40;;;115.40;;
57057;SDS011;55017;52.848;6.748;2023-04-24T04:00:55;124.27;;;120.10;;
57057;SDS011;55017;52.848;6.748;2023-04-24T04:03:23;119.20;;;115.10;;
57057;SDS011;55017;52.848;6.748;2023-04-24T04:05:48;123.80;;;119.50;;
57057;SDS011;55017;52.848;6.748;2023-04-24T04:08:14;125.20;;;121.00;;
57057;SDS011;55017;52.848;6.748;2023-04-24T04:10:40;124.85;;;120.65;;
57057;SDS011;55017;52.848;6.748;2023-04-24T04:13:05;120.10;;;116.00;;
57057;SDS011;55017;52.848;6.748;2023-04-24T04:15:31;119.40;;;115.50;;
57057;SDS011;55017;52.848;6.748;2023-04-24T04:17:57;121.50;;;117.30;;
57057;SDS011;55017;52.848;6.748;2023-04-24T04:20:22;125.40;;;121.00;;
57057;SDS011;55017;52.848;6.748;2023-04-24T04:22:48;123.00;;;118.90;;
57057;SDS011;55017;52.848;6.748;2023-04-24T04:25:14;120.25;;;116.25;;
57057;SDS011;55017;52.848;6.748;2023-04-24T04:27:39;120.23;;;116.03;;
57057;SDS011;55017;52.848;6.748;2023-04-24T04:30:06;122.30;;;118.00;;
57057;SDS011;55017;52.848;6.748;2023-04-24T04:32:36;118.85;;;114.80;;
57057;SDS011;55017;52.848;6.748;2023-04-24T04:37:34;118.27;;;113.93;;
57057;SDS011;55017;52.848;6.748;2023-04-24T04:39:59;119.50;;;115.30;;
57057;SDS011;55017;52.848;6.748;2023-04-24T04:42:25;122.87;;;118.70;;
57057;SDS011;55017;52.848;6.748;2023-04-24T04:44:52;125.50;;;121.20;;
57057;SDS011;55017;52.848;6.748;2023-04-24T04:47:18;118.83;;;114.73;;
57057;SDS011;55017;52.848;6.748;2023-04-24T04:49:47;124.45;;;120.05;;
57057;SDS011;55017;52.848;6.748;2023-04-24T04:52:13;120.90;;;116.60;;
57057;SDS011;55017;52.848;6.748;2023-04-24T04:54:38;122.60;;;118.30;;
57057;SDS011;55017;52.848;6.748;2023-04-24T04:57:04;123.28;;;118.97;;
57057;SDS011;55017;52.848;6.748;2023-04-24T04:59:30;124.28;;;120.00;;
57057;SDS011;55017;52.848;6.748;2023-04-24T05:01:56;119.50;;;115.45;;
57057;SDS011;55017;52.848;6.748;2023-04-24T05:04:21;122.50;;;118.35;;
57057;SDS011;55017;52.848;6.748;2023-04-24T05:06:47;122.85;;;118.55;;
57057;SDS011;55017;52.848;6.748;2023-04-24T05:09:13;125.60;;;121.40;;
57057;SDS011;55017;52.848;6.748;2023-04-24T05:11:38;119.60;;;115.60;;
57057;SDS011;55017;52.848;6.748;2023-04-24T05:14:04;124.50;;;120.20;;
57057;SDS011;55017;52.848;6.748;2023-04-24T05:16:29;120.00;;;116.00;;
57057;SDS011;55017;52.848;6.748;2023-04-24T05:18:55;118.00;;;114.00;;
57057;SDS011;55017;52.848;6.748;2023-04-24T05:21:21;121.40;;;117.30;;
57057;SDS011;55017;52.848;6.748;2023-04-24T05:23:47;121.00;;;117.00;;
57057;SDS011;55017;52.848;6.748;2023-04-24T05:26:13;125.80;;;121.60;;
57057;SDS011;55017;52.848;6.748;2023-04-24T05:28:39;125.00;;;120.70;;
57057;SDS011;55017;52.848;6.748;2023-04-24T05:31:05;123.15;;;118.95;;
57057;SDS011;55017;52.848;6.748;2023-04-24T05:33:31;121.80;;;117.70;;
57057;SDS011;55017;52.848;6.748;2023-04-24T05:35:57;124.30;;;120.10;;
57057;SDS011;55017;52.848;6.748;2023-04-24T05:38:22;121.35;;;117.15;;
57057;SDS011;55017;52.848;6.748;2023-04-24T05:40:48;122.75;;;118.65;;
57057;SDS011;55017;52.848;6.748;2023-04-24T05:43:14;119.65;;;115.60;;
57057;SDS011;55017;52.848;6.748;2023-04-24T05:45:39;118.80;;;114.70;;
57057;SDS011;55017;52.848;6.748;2023-04-24T05:48:05;119.57;;;115.57;;
57057;SDS011;55017;52.848;6.748;2023-04-24T05:50:31;124.25;;;120.05;;
57057;SDS011;55017;52.848;6.748;2023-04-24T05:52:56;124.00;;;119.90;;
57057;SDS011;55017;52.848;6.748;2023-04-24T05:55:23;119.27;;;115.17;;
57057;SDS011;55017;52.848;6.748;2023-04-24T05:57:50;120.70;;;116.70;;
57057;SDS011;55017;52.848;6.748;2023-04-24T06:00:16;118.70;;;114.80;;
57057;SDS011;55017;52.848;6.748;2023-04-24T06:02:44;121.80;;;117.80;;
57057;SDS011;55017;52.848;6.748;2023-04-24T06:05:10;113.95;;;110.25;;
57057;SDS011;55017;52.848;6.748;2023-04-24T06:07:36;121.18;;;117.07;;
57057;SDS011;55017;52.848;6.748;2023-04-24T06:10:01;122.80;;;118.80;;
57057;SDS011;55017;52.848;6.748;2023-04-24T06:12:27;118.50;;;114.55;;
57057;SDS011;55017;52.848;6.748;2023-04-24T06:14:53;119.68;;;115.57;;
57057;SDS011;55017;52.848;6.748;2023-04-24T06:17:20;120.80;;;116.80;;
57057;SDS011;55017;52.848;6.748;2023-04-24T06:19:46;120.35;;;116.45;;
57057;SDS011;55017;52.848;6.748;2023-04-24T06:22:12;123.60;;;119.53;;
57057;SDS011;55017;52.848;6.748;2023-04-24T06:24:37;124.40;;;120.30;;
57057;SDS011;55017;52.848;6.748;2023-04-24T06:27:04;121.40;;;117.30;;
57057;SDS011;55017;52.848;6.748;2023-04-24T06:29:30;117.25;;;113.45;;
57057;SDS011;55017;52.848;6.748;2023-04-24T06:31:55;117.85;;;114.05;;
57057;SDS011;55017;52.848;6.748;2023-04-24T06:34:21;120.35;;;116.45;;
57057;SDS011;55017;52.848;6.748;2023-04-24T06:36:46;120.35;;;116.45;;
57057;SDS011;55017;52.848;6.748;2023-04-24T06:39:12;118.40;;;114.50;;
57057;SDS011;55017;52.848;6.748;2023-04-24T06:41:38;120.15;;;116.25;;
57057;SDS011;55017;52.848;6.748;2023-04-24T06:44:04;119.47;;;115.57;;
57057;SDS011;55017;52.848;6.748;2023-04-24T06:46:30;117.75;;;113.85;;
57057;SDS011;55017;52.848;6.748;2023-04-24T06:48:56;120.90;;;116.95;;
57057;SDS011;55017;52.848;6.748;2023-04-24T06:51:22;123.10;;;119.10;;
57057;SDS011;55017;52.848;6.748;2023-04-24T06:53:48;120.65;;;116.75;;
57057;SDS011;55017;52.848;6.748;2023-04-24T06:56:15;119.00;;;115.00;;
57057;SDS011;55017;52.848;6.748;2023-04-24T07:01:06;119.90;;;115.90;;
57057;SDS011;55017;52.848;6.748;2023-04-24T07:03:32;120.85;;;117.00;;
57057;SDS011;55017;52.848;6.748;2023-04-24T07:05:57;116.65;;;112.85;;
57057;SDS011;55017;52.848;6.748;2023-04-24T07:08:23;119.75;;;115.85;;
57057;SDS011;55017;52.848;6.748;2023-04-24T07:10:49;118.50;;;114.60;;
57057;SDS011;55017;52.848;6.748;2023-04-24T07:13:16;120.20;;;116.40;;
57057;SDS011;55017;52.848;6.748;2023-04-24T07:15:42;116.30;;;112.50;;
57057;SDS011;55017;52.848;6.748;2023-04-24T07:18:08;121.77;;;117.93;;
57057;SDS011;55017;52.848;6.748;2023-04-24T07:20:33;121.30;;;117.50;;
57057;SDS011;55017;52.848;6.748;2023-04-24T07:22:59;123.18;;;119.28;;
57057;SDS011;55017;52.848;6.748;2023-04-24T07:25:25;115.45;;;111.80;;
57057;SDS011;55017;52.848;6.748;2023-04-24T07:27:50;114.75;;;111.05;;
57057;SDS011;55017;52.848;6.748;2023-04-24T07:30:17;117.60;;;113.85;;
57057;SDS011;55017;52.848;6.748;2023-04-24T07:32:42;118.35;;;114.55;;
57057;SDS011;55017;52.848;6.748;2023-04-24T07:35:08;118.35;;;114.65;;
57057;SDS011;55017;52.848;6.748;2023-04-24T07:37:34;120.20;;;116.20;;
57057;SDS011;55017;52.848;6.748;2023-04-24T07:40:00;118.90;;;115.10;;
57057;SDS011;55017;52.848;6.748;2023-04-24T07:42:26;119.57;;;115.67;;
57057;SDS011;55017;52.848;6.748;2023-04-24T07:44:52;123.30;;;119.30;;
57057;SDS011;55017;52.848;6.748;2023-04-24T07:47:18;123.60;;;119.70;;
57057;SDS011;55017;52.848;6.748;2023-04-24T07:49:43;124.25;;;120.15;;
57057;SDS011;55017;52.848;6.748;2023-04-24T07:52:09;119.30;;;115.40;;
57057;SDS011;55017;52.848;6.748;2023-04-24T07:54:35;123.65;;;119.55;;
57057;SDS011;55017;52.848;6.748;2023-04-24T07:57:02;124.05;;;119.85;;
57057;SDS011;55017;52.848;6.748;2023-04-24T07:59:27;124.27;;;120.27;;
57057;SDS011;55017;52.848;6.748;2023-04-24T08:01:53;124.65;;;120.45;;
57057;SDS011;55017;52.848;6.748;2023-04-24T08:04:19;121.85;;;117.95;;
57057;SDS011;55017;52.848;6.748;2023-04-24T08:06:46;122.70;;;118.70;;
57057;SDS011;55017;52.848;6.748;2023-04-24T08:09:13;122.20;;;118.10;;
57057;SDS011;55017;52.848;6.748;2023-04-24T08:11:38;122.20;;;118.00;;
57057;SDS011;55017;52.848;6.748;2023-04-24T08:14:04;121.60;;;117.60;;
57057;SDS011;55017;52.848;6.748;2023-04-24T08:16:30;121.95;;;117.80;;
57057;SDS011;55017;52.848;6.748;2023-04-24T08:18:57;123.50;;;119.50;;
57057;SDS011;55017;52.848;6.748;2023-04-24T08:21:22;123.60;;;119.40;;
57057;SDS011;55017;52.848;6.748;2023-04-24T08:23:48;121.40;;;117.30;;
57057;SDS011;55017;52.848;6.748;2023-04-24T08:26:13;118.30;;;114.40;;
57057;SDS011;55017;52.848;6.748;2023-04-24T08:28:39;120.40;;;116.25;;
57057;SDS011;55017;52.848;6.748;2023-04-24T08:31:05;116.90;;;113.20;;
57057;SDS011;55017;52.848;6.748;2023-04-24T08:33:30;118.10;;;114.00;;
57057;SDS011;55017;52.848;6.748;2023-04-24T08:36:00;119.70;;;115.83;;
57057;SDS011;55017;52.848;6.748;2023-04-24T08:38:26;115.40;;;111.70;;
57057;SDS011;55017;52.848;6.748;2023-04-24T08:40:52;132.18;;;127.70;;
57057;SDS011;55017;52.848;6.748;2023-04-24T08:43:18;119.70;;;115.70;;
57057;SDS011;55017;52.848;6.748;2023-04-24T08:45:46;121.10;;;117.10;;
57057;SDS011;55017;52.848;6.748;2023-04-24T08:48:12;120.38;;;116.30;;
57057;SDS011;55017;52.848;6.748;2023-04-24T08:50:38;120.10;;;116.15;;
57057;SDS011;55017;52.848;6.748;2023-04-24T08:53:07;124.60;;;120.50;;
57057;SDS011;55017;52.848;6.748;2023-04-24T08:55:34;124.10;;;119.60;;
57057;SDS011;55017;52.848;6.748;2023-04-24T08:58:00;124.50;;;120.00;;
57057;SDS011;55017;52.848;6.748;2023-04-24T09:00:27;126.35;;;121.65;;
57057;SDS011;55017;52.848;6.748;2023-04-24T09:02:53;124.80;;;120.20;;
57057;SDS011;55017;52.848;6.748;2023-04-24T09:05:20;121.60;;;117.10;;
57057;SDS011;55017;52.848;6.748;2023-04-24T09:07:55;126.65;;;121.80;;
57057;SDS011;55017;52.848;6.748;2023-04-24T09:10:22;126.20;;;121.40;;
57057;SDS011;55017;52.848;6.748;2023-04-24T09:12:52;123.55;;;118.80;;
57057;SDS011;55017;52.848;6.748;2023-04-24T09:15:19;123.90;;;119.00;;
57057;SDS011;55017;52.848;6.748;2023-04-24T09:17:45;129.20;;;124.30;;
57057;SDS011;55017;52.848;6.748;2023-04-24T09:20:11;128.80;;;124.05;;
57057;SDS011;55017;52.848;6.748;2023-04-24T09:22:37;126.00;;;121.10;;
57057;SDS011;55017;52.848;6.748;2023-04-24T09:25:04;127.80;;;122.80;;
57057;SDS011;55017;52.848;6.748;2023-04-24T09:27:34;127.40;;;122.10;;
57057;SDS011;55017;52.848;6.748;2023-04-24T09:29:59;127.90;;;122.80;;
57057;SDS011;55017;52.848;6.748;2023-04-24T09:32:26;131.00;;;125.70;;
57057;SDS011;55017;52.848;6.748;2023-04-24T09:35:06;132.85;;;127.55;;
57057;SDS011;55017;52.848;6.748;2023-04-24T09:37:44;128.65;;;123.40;;
57057;SDS011;55017;52.848;6.748;2023-04-24T09:40:15;128.80;;;123.30;;
57057;SDS011;55017;52.848;6.748;2023-04-24T09:42:46;131.30;;;125.90;;
57057;SDS011;55017;52.848;6.748;2023-04-24T09:45:17;133.50;;;127.95;;
57057;SDS011;55017;52.848;6.748;2023-04-24T09:47:43;131.75;;;126.15;;
57057;SDS011;55017;52.848;6.748;2023-04-24T09:50:10;129.77;;;124.07;;
57057;SDS011;55017;52.848;6.748;2023-04-24T09:52:39;128.45;;;123.30;;
57057;SDS011;55017;52.848;6.748;2023-04-24T09:55:16;127.45;;;122.25;;
57057;SDS011;55017;52.848;6.748;2023-04-24T09:57:54;131.25;;;125.75;;
57057;SDS011;55017;52.848;6.748;2023-04-24T10:00:25;133.77;;;128.37;;
57057;SDS011;55017;52.848;6.748;2023-04-24T10:02:56;130.75;;;125.40;;
57057;SDS011;55017;52.848;6.748;2023-04-24T10:05:27;129.50;;;124.20;;
57057;SDS011;55017;52.848;6.748;2023-04-24T10:07:57;130.80;;;125.70;;
57057;SDS011;55017;52.848;6.748;2023-04-24T10:10:27;131.60;;;126.40;;
57057;SDS011;55017;52.848;6.748;2023-04-24T10:12:54;130.95;;;125.65;;
57057;SDS011;55017;52.848;6.748;2023-04-24T10:15:20;130.30;;;124.80;;
57057;SDS011;55017;52.848;6.748;2023-04-24T10:17:49;132.25;;;127.20;;
57057;SDS011;55017;52.848;6.748;2023-04-24T10:20:22;128.70;;;123.70;;
57057;SDS011;55017;52.848;6.748;2023-04-24T10:22:50;123.35;;;118.10;;
57057;SDS011;55017;52.848;6.748;2023-04-24T10:25:25;128.55;;;123.65;;
57057;SDS011;55017;52.848;6.748;2023-04-24T10:27:52;124.10;;;119.00;;
57057;SDS011;55017;52.848;6.748;2023-04-24T10:30:22;126.80;;;121.65;;
57057;SDS011;55017;52.848;6.748;2023-04-24T10:32:48;126.90;;;121.80;;
57057;SDS011;55017;52.848;6.748;2023-04-24T10:35:14;124.20;;;118.90;;
57057;SDS011;55017;52.848;6.748;2023-04-24T10:37:42;123.50;;;118.40;;
57057;SDS011;55017;52.848;6.748;2023-04-24T10:40:18;123.10;;;118.30;;
57057;SDS011;55017;52.848;6.748;2023-04-24T10:42:51;124.65;;;119.95;;
57057;SDS011;55017;52.848;6.748;2023-04-24T10:48:06;124.80;;;120.10;;
57057;SDS011;55017;52.848;6.748;2023-04-24T10:50:47;125.70;;;120.73;;
57057;SDS011;55017;52.848;6.748;2023-04-24T10:53:18;124.70;;;119.65;;
57057;SDS011;55017;52.848;6.748;2023-04-24T10:55:52;124.10;;;119.30;;
57057;SDS011;55017;52.848;6.748;2023-04-24T10:58:43;121.05;;;116.70;;
57057;SDS011;55017;52.848;6.748;2023-04-24T11:01:27;124.70;;;120.20;;
57057;SDS011;55017;52.848;6.748;2023-04-24T11:03:54;120.45;;;115.80;;
57057;SDS011;55017;52.848;6.748;2023-04-24T11:06:31;126.50;;;121.70;;
57057;SDS011;55017;52.848;6.748;2023-04-24T11:09:01;120.00;;;115.60;;
57057;SDS011;55017;52.848;6.748;2023-04-24T11:11:32;122.95;;;118.45;;
57057;SDS011;55017;52.848;6.748;2023-04-24T11:16:38;122.90;;;118.10;;
57057;SDS011;55017;52.848;6.748;2023-04-24T11:22:00;124.20;;;119.75;;
57057;SDS011;55017;52.848;6.748;2023-04-24T11:24:31;125.50;;;120.80;;
57057;SDS011;55017;52.848;6.748;2023-04-24T11:32:26;120.30;;;116.10;;
57057;SDS011;55017;52.848;6.748;2023-04-24T11:34:59;122.55;;;117.70;;
57057;SDS011;55017;52.848;6.748;2023-04-24T11:37:29;123.60;;;119.10;;
57057;SDS011;55017;52.848;6.748;2023-04-24T11:40:02;122.80;;;118.60;;
57057;SDS011;55017;52.848;6.748;2023-04-24T11:42:51;122.60;;;118.00;;
57057;SDS011;55017;52.848;6.748;2023-04-24T11:45:17;122.20;;;117.70;;
57057;SDS011;55017;52.848;6.748;2023-04-24T11:47:48;121.80;;;117.30;;
57057;SDS011;55017;52.848;6.748;2023-04-24T11:50:15;123.75;;;119.50;;
57057;SDS011;55017;52.848;6.748;2023-04-24T11:52:42;123.53;;;118.80;;
57057;SDS011;55017;52.848;6.748;2023-04-24T11:57:51;125.80;;;121.30;;
57057;SDS011;55017;52.848;6.748;2023-04-24T12:00:22;123.60;;;119.10;;
57057;SDS011;55017;52.848;6.748;2023-04-24T12:02:48;121.27;;;116.87;;
57057;SDS011;55017;52.848;6.748;2023-04-24T12:05:24;123.35;;;119.00;;
57057;SDS011;55017;52.848;6.748;2023-04-24T12:07:51;122.05;;;117.50;;
57057;SDS011;55017;52.848;6.748;2023-04-24T12:10:21;120.50;;;116.20;;
57057;SDS011;55017;52.848;6.748;2023-04-24T12:12:51;119.10;;;114.95;;
57057;SDS011;55017;52.848;6.748;2023-04-24T12:15:17;119.50;;;115.10;;
57057;SDS011;55017;52.848;6.748;2023-04-24T12:17:47;124.75;;;119.90;;
57057;SDS011;55017;52.848;6.748;2023-04-24T12:20:15;118.30;;;114.20;;
57057;SDS011;55017;52.848;6.748;2023-04-24T12:22:48;120.30;;;115.90;;
57057;SDS011;55017;52.848;6.748;2023-04-24T12:25:19;118.70;;;114.60;;
57057;SDS011;55017;52.848;6.748;2023-04-24T12:27:46;125.35;;;120.80;;
57057;SDS011;55017;52.848;6.748;2023-04-24T12:30:17;119.40;;;115.30;;
57057;SDS011;55017;52.848;6.748;2023-04-24T12:32:47;123.10;;;118.90;;
57057;SDS011;55017;52.848;6.748;2023-04-24T12:35:18;120.50;;;116.50;;
57057;SDS011;55017;52.848;6.748;2023-04-24T12:37:45;121.50;;;117.20;;
57057;SDS011;55017;52.848;6.748;2023-04-24T12:40:12;123.90;;;119.40;;
57057;SDS011;55017;52.848;6.748;2023-04-24T12:42:45;121.35;;;117.00;;
57057;SDS011;55017;52.848;6.748;2023-04-24T12:45:12;125.95;;;121.55;;
57057;SDS011;55017;52.848;6.748;2023-04-24T12:47:39;123.07;;;118.77;;
57057;SDS011;55017;52.848;6.748;2023-04-24T12:50:06;123.20;;;119.00;;
57057;SDS011;55017;52.848;6.748;2023-04-24T12:52:33;122.90;;;118.80;;
57057;SDS011;55017;52.848;6.748;2023-04-24T12:54:59;122.20;;;117.50;;
57057;SDS011;55017;52.848;6.748;2023-04-24T12:57:26;118.50;;;114.70;;
57057;SDS011;55017;52.848;6.748;2023-04-24T12:59:54;122.40;;;118.13;;
57057;SDS011;55017;52.848;6.748;2023-04-24T13:02:21;122.60;;;118.70;;
57057;SDS011;55017;52.848;6.748;2023-04-24T13:04:48;125.10;;;120.60;;
57057;SDS011;55017;52.848;6.748;2023-04-24T13:07:14;124.00;;;119.90;;
57057;SDS011;55017;52.848;6.748;2023-04-24T13:09:42;120.80;;;116.80;;
57057;SDS011;55017;52.848;6.748;2023-04-24T13:12:08;118.65;;;114.65;;
57057;SDS011;55017;52.848;6.748;2023-04-24T13:14:35;126.00;;;121.90;;
57057;SDS011;55017;52.848;6.748;2023-04-24T13:17:01;118.10;;;114.40;;
57057;SDS011;55017;52.848;6.748;2023-04-24T13:19:27;119.10;;;115.28;;
57057;SDS011;55017;52.848;6.748;2023-04-24T13:21:54;119.03;;;115.23;;
57057;SDS011;55017;52.848;6.748;2023-04-24T13:24:20;119.40;;;115.60;;
57057;SDS011;55017;52.848;6.748;2023-04-24T13:29:15;118.70;;;114.60;;
57057;SDS011;55017;52.848;6.748;2023-04-24T13:31:40;122.13;;;118.15;;
57057;SDS011;55017;52.848;6.748;2023-04-24T13:34:06;118.60;;;114.30;;
57057;SDS011;55017;52.848;6.748;2023-04-24T13:36:32;121.10;;;117.10;;
57057;SDS011;55017;52.848;6.748;2023-04-24T13:38:57;121.65;;;117.53;;
57057;SDS011;55017;52.848;6.748;2023-04-24T13:41:23;119.15;;;115.22;;
57057;SDS011;55017;52.848;6.748;2023-04-24T13:43:49;124.55;;;120.45;;
57057;SDS011;55017;52.848;6.748;2023-04-24T13:46:14;131.23;;;126.72;;
57057;SDS011;55017;52.848;6.748;2023-04-24T13:48:40;120.63;;;116.22;;
57057;SDS011;55017;52.848;6.748;2023-04-24T13:51:06;120.50;;;116.35;;
57057;SDS011;55017;52.848;6.748;2023-04-24T13:53:31;119.90;;;115.90;;
57057;SDS011;55017;52.848;6.748;2023-04-24T13:56:00;121.10;;;117.20;;
57057;SDS011;55017;52.848;6.748;2023-04-24T13:58:27;119.40;;;115.50;;
57057;SDS011;55017;52.848;6.748;2023-04-24T14:03:18;124.85;;;120.65;;
57057;SDS011;55017;52.848;6.748;2023-04-24T14:05:43;122.90;;;118.80;;
57057;SDS011;55017;52.848;6.748;2023-04-24T14:08:09;120.00;;;116.03;;
57057;SDS011;55017;52.848;6.748;2023-04-24T14:10:35;118.80;;;115.00;;
57057;SDS011;55017;52.848;6.748;2023-04-24T14:13:00;119.05;;;115.15;;
57057;SDS011;55017;52.848;6.748;2023-04-24T14:15:26;124.15;;;119.82;;
57057;SDS011;55017;52.848;6.748;2023-04-24T14:17:52;125.43;;;121.33;;
57057;SDS011;55017;52.848;6.748;2023-04-24T14:20:17;119.95;;;115.82;;
57057;SDS011;55017;52.848;6.748;2023-04-24T14:22:43;121.65;;;117.45;;
57057;SDS011;55017;52.848;6.748;2023-04-24T14:25:08;123.40;;;119.30;;